Seiwamaru — JD3227 — position and weather

sailwx.info

Track history (hours):
 
Tides and Currents Weather Stations Pressure Air Temp Water Temp Dewpoint Dewpoint Depression Visibility Wind Speed Wind Dir Waves Ship Positions

Seiwamaru

Last reported at 2017-Nov-24 00:00 UTC. Time now 2017-Nov-24 00:23 UTC.
Position N 35°21' E 139°49'.

Length 38 m; draft 4.1 m.

Type: Tug. MMSI: 432816000.

Date/timePositionNaut miles runAvg speedWind from/ knotsBaromVisibWave heightAir tempDewpointWater temp
2017-Nov-24 00:00N 35°21' E 139°49'0 0.3
2017-Nov-23 23:30N 35°21' E 139°49'0 0.4
2017-Nov-23 23:01N 35°21' E 139°49'0 0.4
2017-Nov-23 22:30N 35°21' E 139°49'0 0.1
2017-Nov-23 22:00N 35°21' E 139°49'0 0.0
2017-Nov-23 21:30N 35°21' E 139°49'0 0.0
2017-Nov-23 21:00N 35°21' E 139°49'0 0.2
2017-Nov-23 20:30N 35°21' E 139°49'0 0.2
2017-Nov-23 20:00N 35°21' E 139°49'0 0.9
2017-Nov-23 19:30N 35°20' E 139°49'0 0.0
2017-Nov-23 18:59N 35°20' E 139°49'0 0.0
2017-Nov-23 18:30N 35°20' E 139°49'0 0.0
2017-Nov-23 17:59N 35°20' E 139°49'0 0.0
2017-Nov-23 17:30N 35°20' E 139°49'0 0.0
2017-Nov-23 17:00N 35°20' E 139°49'0 0.0
2017-Nov-23 16:30N 35°20' E 139°49'0 0.0
2017-Nov-23 16:00N 35°20' E 139°49'0 0.0
2017-Nov-23 15:30N 35°20' E 139°49'0 0.1
2017-Nov-23 15:00N 35°20' E 139°49'0 0.1
2017-Nov-23 14:30N 35°20' E 139°49'0 0.0
2017-Nov-23 14:00N 35°20' E 139°49'0 0.0
2017-Nov-23 13:30N 35°20' E 139°49'0 0.9
2017-Nov-23 13:01N 35°21' E 139°49'0 0.2
2017-Nov-23 12:30N 35°21' E 139°49'0 0.2
2017-Nov-23 12:00N 35°21' E 139°49'0 0.1
2017-Nov-23 11:31N 35°21' E 139°49'0 0.3
2017-Nov-23 11:00N 35°21' E 139°49'0 0.1
2017-Nov-23 10:30N 35°21' E 139°49'0 0.1
2017-Nov-23 10:01N 35°21' E 139°49'0 0.1
2017-Nov-23 09:30N 35°21' E 139°49'0 0.1
2017-Nov-23 09:00N 35°21' E 139°49'0 0.1
2017-Nov-23 08:30N 35°21' E 139°49'0 0.1
2017-Nov-23 08:00N 35°21' E 139°49'0 0.1
2017-Nov-23 07:31N 35°21' E 139°49'0 0.3
2017-Nov-23 07:00N 35°21' E 139°49'0 0.3
2017-Nov-23 06:30N 35°21' E 139°49'0 0.1
2017-Nov-23 06:00N 35°21' E 139°49'0 0.2
2017-Nov-23 05:30N 35°21' E 139°49'0 0.1
2017-Nov-23 05:00N 35°21' E 139°49'0 0.4
2017-Nov-23 04:30N 35°21' E 139°49'0 0.2
2017-Nov-23 04:00N 35°21' E 139°49'0 0.1
2017-Nov-23 03:30N 35°21' E 139°49'0 0.2
2017-Nov-23 03:00N 35°21' E 139°49'0 0.4
2017-Nov-23 02:31N 35°21' E 139°49'0 0.1
2017-Nov-23 02:00N 35°21' E 139°49'0 0.1
2017-Nov-23 01:30N 35°21' E 139°49'0 0.2
2017-Nov-23 01:00N 35°21' E 139°49'0 0.4
2017-Nov-23 00:30N 35°20' E 139°49'0 0.5
2017-Nov-23 00:00N 35°21' E 139°49'1 1.9
2017-Nov-22 23:30N 35°21' E 139°49'3 5.4
2017-Nov-22 23:00N 35°22' E 139°52'  
2017-Nov-20 00:28N 35°21' E 139°54'0 0.0
2017-Nov-19 23:47N 35°21' E 139°54'0 0.0
2017-Nov-19 23:30N 35°21' E 139°54'0 0.0
2017-Nov-19 23:00N 35°21' E 139°54'1 1.8
2017-Nov-19 22:29N 35°22' E 139°53'2 4.8
2017-Nov-19 22:00N 35°22' E 139°51'0 0.1
2017-Nov-19 21:30N 35°22' E 139°51'2 4.0
2017-Nov-19 21:01N 35°23' E 139°49'1 2.2
2017-Nov-19 20:30N 35°24' E 139°50'4 7.1
2017-Nov-19 19:57N 35°22' E 139°54'0 0.0
2017-Nov-19 15:42N 35°21' E 139°54'0 0.0
2017-Nov-19 12:54N 35°21' E 139°54'0 0.0
2017-Nov-19 12:30N 35°21' E 139°54'1 2.5
2017-Nov-19 11:57N 35°22' E 139°52'0 0.4
2017-Nov-19 11:30N 35°22' E 139°52'0 0.6
2017-Nov-19 10:57N 35°22' E 139°52'0 0.3
2017-Nov-19 10:30N 35°22' E 139°52'2 0.2
2017-Nov-19 02:51N 35°21' E 139°54'0 0.0
2017-Nov-19 01:47N 35°21' E 139°54'0 0.0
2017-Nov-18 22:09N 35°21' E 139°54'1 4.5
2017-Nov-18 21:58N 35°22' E 139°53'0 0.4
2017-Nov-18 21:28N 35°22' E 139°53'3 7.1
2017-Nov-18 20:59N 35°24' E 139°49'2 5.1
2017-Nov-18 20:30N 35°23' E 139°46'5 9.3
2017-Nov-18 20:00N 35°22' E 139°52'1 0.1
2017-Nov-18 07:35N 35°22' E 139°53'0 1.4
2017-Nov-18 07:30N 35°22' E 139°53'2 3.6
2017-Nov-18 07:00N 35°21' E 139°51'0 0.2
2017-Nov-18 06:31N 35°21' E 139°51'3 5.0
2017-Nov-18 06:00N 35°23' E 139°49'1 2.4
2017-Nov-18 05:30N 35°24' E 139°50'3 2.0
2017-Nov-18 04:00N 35°22' E 139°53'2 3.9
2017-Nov-18 03:30N 35°22' E 139°51'0 0.2
2017-Nov-18 03:00N 35°22' E 139°51'2 4.9
2017-Nov-18 02:30N 35°23' E 139°49'1 1.7
2017-Nov-18 02:00N 35°24' E 139°50'3 5.7
2017-Nov-18 01:29N 35°22' E 139°53'0 0.1
2017-Nov-18 01:00N 35°22' E 139°53'0 0.0
2017-Nov-18 00:30N 35°22' E 139°53'1 2.9
2017-Nov-18 00:00N 35°23' E 139°51'1 2.1
2017-Nov-17 23:30N 35°22' E 139°51'1 1.6
2017-Nov-17 22:59N 35°22' E 139°50'3 5.9
2017-Nov-17 22:27N 35°21' E 139°54'0 0.0
2017-Nov-17 17:53N 35°21' E 139°54'0 0.0
2017-Nov-17 17:23N 35°21' E 139°54'0 0.0
2017-Nov-17 17:00N 35°21' E 139°54'0 0.0
2017-Nov-17 16:30N 35°21' E 139°54'0 0.0
2017-Nov-17 16:00N 35°21' E 139°54'0 0.0
2017-Nov-17 15:30N 35°21' E 139°54'0 0.0
2017-Nov-17 15:00N 35°21' E 139°54'0 0.0
2017-Nov-17 14:30N 35°21' E 139°54'0 0.0
2017-Nov-17 14:00N 35°21' E 139°54'0 0.0
2017-Nov-17 13:30N 35°21' E 139°54'0 0.0
2017-Nov-17 13:00N 35°21' E 139°54'0 0.0
2017-Nov-17 12:30N 35°21' E 139°54'0 0.0
2017-Nov-17 12:00N 35°21' E 139°54'0 0.0
2017-Nov-17 11:28N 35°21' E 139°54'0 0.0
2017-Nov-17 10:54N 35°21' E 139°54'0 0.0
2017-Nov-17 10:30N 35°21' E 139°54'0 0.0
2017-Nov-17 10:00N 35°21' E 139°54'0 0.0
2017-Nov-17 09:28N 35°21' E 139°54'0 0.0
2017-Nov-17 08:59N 35°21' E 139°54'0 0.0
2017-Nov-17 06:21N 35°21' E 139°54'0 0.0
2017-Nov-17 05:39N 35°21' E 139°54'0 0.0
2017-Nov-17 05:22N 35°21' E 139°54'0 0.0
2017-Nov-17 04:51N 35°21' E 139°54'0 0.0
2017-Nov-17 04:29N 35°21' E 139°54'0 0.0
2017-Nov-17 04:00N 35°21' E 139°54'0 0.0
2017-Nov-17 03:29N 35°21' E 139°54'0 0.0
2017-Nov-17 02:54N 35°21' E 139°54'0 0.0
2017-Nov-17 02:30N 35°21' E 139°54'0 0.0
2017-Nov-17 02:00N 35°21' E 139°54'0 0.9
2017-Nov-17 01:28N 35°22' E 139°53'4 7.9
2017-Nov-17 01:00N 35°21' E 139°49'0 0.3
2017-Nov-17 00:30N 35°20' E 139°49'0 0.2
2017-Nov-17 00:00N 35°20' E 139°49'0 0.2
2017-Nov-16 23:30N 35°20' E 139°49'0 0.1
2017-Nov-16 23:00N 35°20' E 139°49'0 0.2
2017-Nov-16 22:30N 35°20' E 139°49'0 0.5
2017-Nov-16 22:00N 35°21' E 139°49'0 0.6
2017-Nov-16 21:30N 35°20' E 139°49'0 0.1
2017-Nov-16 21:00N 35°20' E 139°49'0 0.2
2017-Nov-16 20:30N 35°20' E 139°49'0 0.5
2017-Nov-16 20:00N 35°21' E 139°49'0 0.7
2017-Nov-16 19:31N 35°20' E 139°49'0 0.0
2017-Nov-16 19:00N 35°20' E 139°49'0 0.0
2017-Nov-16 18:30N 35°20' E 139°49'0 0.0
2017-Nov-16 18:00N 35°20' E 139°49'0 0.0
2017-Nov-16 17:30N 35°20' E 139°49'0 0.0
2017-Nov-16 17:00N 35°20' E 139°49'0 0.0
2017-Nov-16 16:30N 35°20' E 139°49'0 0.0
2017-Nov-16 16:00N 35°20' E 139°49'0 0.0
2017-Nov-16 15:30N 35°20' E 139°49'0 0.0
2017-Nov-16 15:00N 35°20' E 139°49'0 0.0
2017-Nov-16 14:30N 35°20' E 139°49'0 0.0
2017-Nov-16 14:00N 35°20' E 139°49'0 0.0
2017-Nov-16 13:30N 35°20' E 139°49'0 0.2
2017-Nov-16 13:00N 35°20' E 139°49'0 0.2
2017-Nov-16 12:30N 35°20' E 139°49'0 0.5
2017-Nov-16 12:00N 35°21' E 139°49'0 0.2
2017-Nov-16 11:30N 35°21' E 139°49'0 0.2
2017-Nov-16 11:00N 35°20' E 139°49'0 0.1
2017-Nov-16 10:31N 35°21' E 139°49'0 0.3
2017-Nov-16 10:00N 35°21' E 139°49'0 0.4
2017-Nov-16 09:30N 35°21' E 139°49'0 0.2
2017-Nov-16 09:00N 35°21' E 139°49'0 0.2
2017-Nov-16 08:30N 35°20' E 139°49'0 0.8
2017-Nov-16 08:01N 35°21' E 139°49'1 1.1
2017-Nov-16 07:30N 35°20' E 139°49'0 0.0
2017-Nov-16 07:00N 35°20' E 139°49'0 0.2
2017-Nov-16 06:30N 35°20' E 139°49'0 0.9
2017-Nov-16 06:00N 35°21' E 139°49'0 1.0
2017-Nov-16 05:31N 35°20' E 139°49'0 0.1
2017-Nov-16 05:01N 35°20' E 139°49'0 0.1
2017-Nov-16 04:30N 35°20' E 139°49'0 0.3
2017-Nov-16 04:00N 35°20' E 139°49'0 0.4
2017-Nov-16 03:31N 35°20' E 139°49'0 0.2
2017-Nov-16 03:01N 35°20' E 139°49'1 2.7
2017-Nov-16 02:30N 35°22' E 139°49'0 0.7
2017-Nov-16 02:00N 35°22' E 139°49'0 0.1
2017-Nov-16 01:30N 35°22' E 139°49'1 2.7
2017-Nov-16 01:00N 35°22' E 139°51'1 1.5
2017-Nov-16 00:30N 35°22' E 139°50'0 0.4
2017-Nov-16 00:00N 35°22' E 139°50'0 0.6
2017-Nov-15 23:30N 35°22' E 139°50'1 1.2
2017-Nov-15 23:00N 35°22' E 139°51'0 0.5
2017-Nov-15 22:31N 35°21' E 139°51'3 5.4
2017-Nov-15 22:00N 35°24' E 139°49'2 2.9
2017-Nov-15 21:27N 35°24' E 139°51'3 7.2
2017-Nov-15 21:00N 35°22' E 139°54'0 0.1
2017-Nov-15 20:29N 35°22' E 139°54'0 0.0
2017-Nov-15 20:00N 35°22' E 139°54'0 0.0
2017-Nov-15 19:24N 35°22' E 139°54'0 0.0
2017-Nov-15 17:41N 35°22' E 139°54'0 0.0
2017-Nov-15 17:30N 35°22' E 139°54'0 0.0
2017-Nov-15 15:46N 35°22' E 139°54'0 0.0
2017-Nov-15 14:23N 35°22' E 139°54'0 0.0
2017-Nov-15 13:46N 35°22' E 139°54'0 0.0
2017-Nov-15 13:26N 35°22' E 139°54'0 0.0
2017-Nov-15 12:56N 35°22' E 139°54'0 0.0
2017-Nov-15 12:26N 35°22' E 139°54'0 0.0
2017-Nov-15 11:58N 35°22' E 139°54'0 0.0
2017-Nov-15 11:30N 35°22' E 139°54'0 0.0
2017-Nov-15 10:18N 35°22' E 139°54'0 0.0
2017-Nov-15 09:19N 35°22' E 139°54'0 0.0
2017-Nov-15 08:52N 35°22' E 139°54'0 0.0
2017-Nov-15 08:29N 35°22' E 139°54'0 0.0
2017-Nov-15 07:02N 35°22' E 139°54'0 0.0
2017-Nov-15 06:54N 35°22' E 139°54'0 0.0
2017-Nov-15 06:28N 35°22' E 139°54'0 0.0
2017-Nov-15 05:55N 35°22' E 139°54'0 0.0
2017-Nov-15 01:02N 35°22' E 139°54'0 0.0
2017-Nov-15 00:52N 35°22' E 139°54'0 0.0
2017-Nov-15 00:28N 35°22' E 139°54'0 0.0
2017-Nov-14 23:57N 35°22' E 139°54'0 0.0
2017-Nov-14 22:51N 35°22' E 139°54'0 0.0
2017-Nov-14 22:28N 35°22' E 139°54'0 0.0
2017-Nov-14 22:00N 35°22' E 139°54'1 1.6
2017-Nov-14 21:19N 35°22' E 139°53'1 2.7
2017-Nov-14 21:00N 35°22' E 139°52'0 0.1
2017-Nov-14 20:30N 35°22' E 139°52'1 1.2
2017-Nov-14 20:00N 35°22' E 139°51'2 5.0
2017-Nov-14 19:30N 35°24' E 139°49'3 5.2
2017-Nov-14 18:57N 35°26' E 139°50'1 1.4
2017-Nov-14 18:27N 35°26' E 139°51'3 7.8
2017-Nov-14 18:00N 35°23' E 139°51'1 2.1
2017-Nov-14 17:30N 35°22' E 139°52'1 2.4
2017-Nov-14 16:59N 35°22' E 139°53'1 1.6
2017-Nov-14 16:27N 35°22' E 139°53'0 0.0
2017-Nov-14 15:47N 35°22' E 139°53'0 0.0
2017-Nov-14 14:56N 35°22' E 139°53'0 0.0
2017-Nov-14 14:27N 35°22' E 139°53'0 0.0
2017-Nov-14 14:00N 35°22' E 139°53'0 0.0
2017-Nov-14 13:30N 35°22' E 139°53'1 1.1
2017-Nov-14 12:44N 35°22' E 139°53'1 3.6
2017-Nov-14 12:30N 35°22' E 139°54'0 0.0
2017-Nov-14 07:52N 35°22' E 139°54'0 0.0
2017-Nov-14 07:28N 35°22' E 139°54'0 0.0
2017-Nov-14 06:56N 35°22' E 139°54'0 0.1
2017-Nov-14 06:19N 35°21' E 139°54'0 0.0
2017-Nov-14 04:11N 35°21' E 139°54'0 0.0
2017-Nov-14 02:44N 35°21' E 139°54'2 9.0
2017-Nov-14 02:27N 35°23' E 139°51'3 5.6
2017-Nov-14 02:00N 35°21' E 139°49'0 0.3
2017-Nov-14 01:30N 35°21' E 139°49'2 4.4
2017-Nov-14 01:00N 35°23' E 139°50'  
Track history (hours):
 
Tides and Currents Weather Stations Pressure Air Temp Water Temp Dewpoint Dewpoint Depression Visibility Wind Speed Wind Dir Waves Ship Positions

Seiwamaru

Last reported at 2017-Nov-24 00:00 UTC. Time now 2017-Nov-24 00:23 UTC.
Position N 35°21' E 139°49'.

Length 38 m; draft 4.1 m.

Type: Tug. MMSI: 432816000.

Date/timePositionNaut miles runAvg speedWind from/ knotsBaromVisibWave heightAir tempDewpointWater temp
2017-Nov-24 00:00N 35°21' E 139°49'0 0.3
2017-Nov-23 23:30N 35°21' E 139°49'0 0.4
2017-Nov-23 23:01N 35°21' E 139°49'0 0.4
2017-Nov-23 22:30N 35°21' E 139°49'0 0.1
2017-Nov-23 22:00N 35°21' E 139°49'0 0.0
2017-Nov-23 21:30N 35°21' E 139°49'0 0.0
2017-Nov-23 21:00N 35°21' E 139°49'0 0.2
2017-Nov-23 20:30N 35°21' E 139°49'0 0.2
2017-Nov-23 20:00N 35°21' E 139°49'0 0.9
2017-Nov-23 19:30N 35°20' E 139°49'0 0.0
2017-Nov-23 18:59N 35°20' E 139°49'0 0.0
2017-Nov-23 18:30N 35°20' E 139°49'0 0.0
2017-Nov-23 17:59N 35°20' E 139°49'0 0.0
2017-Nov-23 17:30N 35°20' E 139°49'0 0.0
2017-Nov-23 17:00N 35°20' E 139°49'0 0.0
2017-Nov-23 16:30N 35°20' E 139°49'0 0.0
2017-Nov-23 16:00N 35°20' E 139°49'0 0.0
2017-Nov-23 15:30N 35°20' E 139°49'0 0.1
2017-Nov-23 15:00N 35°20' E 139°49'0 0.1
2017-Nov-23 14:30N 35°20' E 139°49'0 0.0
2017-Nov-23 14:00N 35°20' E 139°49'0 0.0
2017-Nov-23 13:30N 35°20' E 139°49'0 0.9
2017-Nov-23 13:01N 35°21' E 139°49'0 0.2
2017-Nov-23 12:30N 35°21' E 139°49'0 0.2
2017-Nov-23 12:00N 35°21' E 139°49'0 0.1
2017-Nov-23 11:31N 35°21' E 139°49'0 0.3
2017-Nov-23 11:00N 35°21' E 139°49'0 0.1
2017-Nov-23 10:30N 35°21' E 139°49'0 0.1
2017-Nov-23 10:01N 35°21' E 139°49'0 0.1
2017-Nov-23 09:30N 35°21' E 139°49'0 0.1
2017-Nov-23 09:00N 35°21' E 139°49'0 0.1
2017-Nov-23 08:30N 35°21' E 139°49'0 0.1
2017-Nov-23 08:00N 35°21' E 139°49'0 0.1
2017-Nov-23 07:31N 35°21' E 139°49'0 0.3
2017-Nov-23 07:00N 35°21' E 139°49'0 0.3
2017-Nov-23 06:30N 35°21' E 139°49'0 0.1
2017-Nov-23 06:00N 35°21' E 139°49'0 0.2
2017-Nov-23 05:30N 35°21' E 139°49'0 0.1
2017-Nov-23 05:00N 35°21' E 139°49'0 0.4
2017-Nov-23 04:30N 35°21' E 139°49'0 0.2
2017-Nov-23 04:00N 35°21' E 139°49'0 0.1
2017-Nov-23 03:30N 35°21' E 139°49'0 0.2
2017-Nov-23 03:00N 35°21' E 139°49'0 0.4
2017-Nov-23 02:31N 35°21' E 139°49'0 0.1
2017-Nov-23 02:00N 35°21' E 139°49'0 0.1
2017-Nov-23 01:30N 35°21' E 139°49'0 0.2
2017-Nov-23 01:00N 35°21' E 139°49'0 0.4
2017-Nov-23 00:30N 35°20' E 139°49'0 0.5
2017-Nov-23 00:00N 35°21' E 139°49'1 1.9
2017-Nov-22 23:30N 35°21' E 139°49'3 5.4
2017-Nov-22 23:00N 35°22' E 139°52'  
2017-Nov-20 00:28N 35°21' E 139°54'0 0.0
2017-Nov-19 23:47N 35°21' E 139°54'0 0.0
2017-Nov-19 23:30N 35°21' E 139°54'0 0.0
2017-Nov-19 23:00N 35°21' E 139°54'1 1.8
2017-Nov-19 22:29N 35°22' E 139°53'2 4.8
2017-Nov-19 22:00N 35°22' E 139°51'0 0.1
2017-Nov-19 21:30N 35°22' E 139°51'2 4.0
2017-Nov-19 21:01N 35°23' E 139°49'1 2.2
2017-Nov-19 20:30N 35°24' E 139°50'4 7.1
2017-Nov-19 19:57N 35°22' E 139°54'0 0.0
2017-Nov-19 15:42N 35°21' E 139°54'0 0.0
2017-Nov-19 12:54N 35°21' E 139°54'0 0.0
2017-Nov-19 12:30N 35°21' E 139°54'1 2.5
2017-Nov-19 11:57N 35°22' E 139°52'0 0.4
2017-Nov-19 11:30N 35°22' E 139°52'0 0.6
2017-Nov-19 10:57N 35°22' E 139°52'0 0.3
2017-Nov-19 10:30N 35°22' E 139°52'2 0.2
2017-Nov-19 02:51N 35°21' E 139°54'0 0.0
2017-Nov-19 01:47N 35°21' E 139°54'0 0.0
2017-Nov-18 22:09N 35°21' E 139°54'1 4.5
2017-Nov-18 21:58N 35°22' E 139°53'0 0.4
2017-Nov-18 21:28N 35°22' E 139°53'3 7.1
2017-Nov-18 20:59N 35°24' E 139°49'2 5.1
2017-Nov-18 20:30N 35°23' E 139°46'5 9.3
2017-Nov-18 20:00N 35°22' E 139°52'1 0.1
2017-Nov-18 07:35N 35°22' E 139°53'0 1.4
2017-Nov-18 07:30N 35°22' E 139°53'2 3.6
2017-Nov-18 07:00N 35°21' E 139°51'0 0.2
2017-Nov-18 06:31N 35°21' E 139°51'3 5.0
2017-Nov-18 06:00N 35°23' E 139°49'1 2.4
2017-Nov-18 05:30N 35°24' E 139°50'3 2.0
2017-Nov-18 04:00N 35°22' E 139°53'2 3.9
2017-Nov-18 03:30N 35°22' E 139°51'0 0.2
2017-Nov-18 03:00N 35°22' E 139°51'2 4.9
2017-Nov-18 02:30N 35°23' E 139°49'1 1.7
2017-Nov-18 02:00N 35°24' E 139°50'3 5.7
2017-Nov-18 01:29N 35°22' E 139°53'0 0.1
2017-Nov-18 01:00N 35°22' E 139°53'0 0.0
2017-Nov-18 00:30N 35°22' E 139°53'1 2.9
2017-Nov-18 00:00N 35°23' E 139°51'1 2.1
2017-Nov-17 23:30N 35°22' E 139°51'1 1.6
2017-Nov-17 22:59N 35°22' E 139°50'3 5.9
2017-Nov-17 22:27N 35°21' E 139°54'0 0.0
2017-Nov-17 17:53N 35°21' E 139°54'0 0.0
2017-Nov-17 17:23N 35°21' E 139°54'0 0.0
2017-Nov-17 17:00N 35°21' E 139°54'0 0.0
2017-Nov-17 16:30N 35°21' E 139°54'0 0.0
2017-Nov-17 16:00N 35°21' E 139°54'0 0.0
2017-Nov-17 15:30N 35°21' E 139°54'0 0.0
2017-Nov-17 15:00N 35°21' E 139°54'0 0.0
2017-Nov-17 14:30N 35°21' E 139°54'0 0.0
2017-Nov-17 14:00N 35°21' E 139°54'0 0.0
2017-Nov-17 13:30N 35°21' E 139°54'0 0.0
2017-Nov-17 13:00N 35°21' E 139°54'0 0.0
2017-Nov-17 12:30N 35°21' E 139°54'0 0.0
2017-Nov-17 12:00N 35°21' E 139°54'0 0.0
2017-Nov-17 11:28N 35°21' E 139°54'0 0.0
2017-Nov-17 10:54N 35°21' E 139°54'0 0.0
2017-Nov-17 10:30N 35°21' E 139°54'0 0.0
2017-Nov-17 10:00N 35°21' E 139°54'0 0.0
2017-Nov-17 09:28N 35°21' E 139°54'0 0.0
2017-Nov-17 08:59N 35°21' E 139°54'0 0.0
2017-Nov-17 06:21N 35°21' E 139°54'0 0.0
2017-Nov-17 05:39N 35°21' E 139°54'0 0.0
2017-Nov-17 05:22N 35°21' E 139°54'0 0.0
2017-Nov-17 04:51N 35°21' E 139°54'0 0.0
2017-Nov-17 04:29N 35°21' E 139°54'0 0.0
2017-Nov-17 04:00N 35°21' E 139°54'0 0.0
2017-Nov-17 03:29N 35°21' E 139°54'0 0.0
2017-Nov-17 02:54N 35°21' E 139°54'0 0.0
2017-Nov-17 02:30N 35°21' E 139°54'0 0.0
2017-Nov-17 02:00N 35°21' E 139°54'0 0.9
2017-Nov-17 01:28N 35°22' E 139°53'4 7.9
2017-Nov-17 01:00N 35°21' E 139°49'0 0.3
2017-Nov-17 00:30N 35°20' E 139°49'0 0.2
2017-Nov-17 00:00N 35°20' E 139°49'0 0.2
2017-Nov-16 23:30N 35°20' E 139°49'0 0.1
2017-Nov-16 23:00N 35°20' E 139°49'0 0.2
2017-Nov-16 22:30N 35°20' E 139°49'0 0.5
2017-Nov-16 22:00N 35°21' E 139°49'0 0.6
2017-Nov-16 21:30N 35°20' E 139°49'0 0.1
2017-Nov-16 21:00N 35°20' E 139°49'0 0.2
2017-Nov-16 20:30N 35°20' E 139°49'0 0.5
2017-Nov-16 20:00N 35°21' E 139°49'0 0.7
2017-Nov-16 19:31N 35°20' E 139°49'0 0.0
2017-Nov-16 19:00N 35°20' E 139°49'0 0.0
2017-Nov-16 18:30N 35°20' E 139°49'0 0.0
2017-Nov-16 18:00N 35°20' E 139°49'0 0.0
2017-Nov-16 17:30N 35°20' E 139°49'0 0.0
2017-Nov-16 17:00N 35°20' E 139°49'0 0.0
2017-Nov-16 16:30N 35°20' E 139°49'0 0.0
2017-Nov-16 16:00N 35°20' E 139°49'0 0.0
2017-Nov-16 15:30N 35°20' E 139°49'0 0.0
2017-Nov-16 15:00N 35°20' E 139°49'0 0.0
2017-Nov-16 14:30N 35°20' E 139°49'0 0.0
2017-Nov-16 14:00N 35°20' E 139°49'0 0.0
2017-Nov-16 13:30N 35°20' E 139°49'0 0.2
2017-Nov-16 13:00N 35°20' E 139°49'0 0.2
2017-Nov-16 12:30N 35°20' E 139°49'0 0.5
2017-Nov-16 12:00N 35°21' E 139°49'0 0.2
2017-Nov-16 11:30N 35°21' E 139°49'0 0.2
2017-Nov-16 11:00N 35°20' E 139°49'0 0.1
2017-Nov-16 10:31N 35°21' E 139°49'0 0.3
2017-Nov-16 10:00N 35°21' E 139°49'0 0.4
2017-Nov-16 09:30N 35°21' E 139°49'0 0.2
2017-Nov-16 09:00N 35°21' E 139°49'0 0.2
2017-Nov-16 08:30N 35°20' E 139°49'0 0.8
2017-Nov-16 08:01N 35°21' E 139°49'1 1.1
2017-Nov-16 07:30N 35°20' E 139°49'0 0.0
2017-Nov-16 07:00N 35°20' E 139°49'0 0.2
2017-Nov-16 06:30N 35°20' E 139°49'0 0.9
2017-Nov-16 06:00N 35°21' E 139°49'0 1.0
2017-Nov-16 05:31N 35°20' E 139°49'0 0.1
2017-Nov-16 05:01N 35°20' E 139°49'0 0.1
2017-Nov-16 04:30N 35°20' E 139°49'0 0.3
2017-Nov-16 04:00N 35°20' E 139°49'0 0.4
2017-Nov-16 03:31N 35°20' E 139°49'0 0.2
2017-Nov-16 03:01N 35°20' E 139°49'1 2.7
2017-Nov-16 02:30N 35°22' E 139°49'0 0.7
2017-Nov-16 02:00N 35°22' E 139°49'0 0.1
2017-Nov-16 01:30N 35°22' E 139°49'1 2.7
2017-Nov-16 01:00N 35°22' E 139°51'1 1.5
2017-Nov-16 00:30N 35°22' E 139°50'0 0.4
2017-Nov-16 00:00N 35°22' E 139°50'0 0.6
2017-Nov-15 23:30N 35°22' E 139°50'1 1.2
2017-Nov-15 23:00N 35°22' E 139°51'0 0.5
2017-Nov-15 22:31N 35°21' E 139°51'3 5.4
2017-Nov-15 22:00N 35°24' E 139°49'2 2.9
2017-Nov-15 21:27N 35°24' E 139°51'3 7.2
2017-Nov-15 21:00N 35°22' E 139°54'0 0.1
2017-Nov-15 20:29N 35°22' E 139°54'0 0.0
2017-Nov-15 20:00N 35°22' E 139°54'0 0.0
2017-Nov-15 19:24N 35°22' E 139°54'0 0.0
2017-Nov-15 17:41N 35°22' E 139°54'0 0.0
2017-Nov-15 17:30N 35°22' E 139°54'0 0.0
2017-Nov-15 15:46N 35°22' E 139°54'0 0.0
2017-Nov-15 14:23N 35°22' E 139°54'0 0.0
2017-Nov-15 13:46N 35°22' E 139°54'0 0.0
2017-Nov-15 13:26N 35°22' E 139°54'0 0.0
2017-Nov-15 12:56N 35°22' E 139°54'0 0.0
2017-Nov-15 12:26N 35°22' E 139°54'0 0.0
2017-Nov-15 11:58N 35°22' E 139°54'0 0.0
2017-Nov-15 11:30N 35°22' E 139°54'0 0.0
2017-Nov-15 10:18N 35°22' E 139°54'0 0.0
2017-Nov-15 09:19N 35°22' E 139°54'0 0.0
2017-Nov-15 08:52N 35°22' E 139°54'0 0.0
2017-Nov-15 08:29N 35°22' E 139°54'0 0.0
2017-Nov-15 07:02N 35°22' E 139°54'0 0.0
2017-Nov-15 06:54N 35°22' E 139°54'0 0.0
2017-Nov-15 06:28N 35°22' E 139°54'0 0.0
2017-Nov-15 05:55N 35°22' E 139°54'0 0.0
2017-Nov-15 01:02N 35°22' E 139°54'0 0.0
2017-Nov-15 00:52N 35°22' E 139°54'0 0.0
2017-Nov-15 00:28N 35°22' E 139°54'0 0.0
2017-Nov-14 23:57N 35°22' E 139°54'0 0.0
2017-Nov-14 22:51N 35°22' E 139°54'0 0.0
2017-Nov-14 22:28N 35°22' E 139°54'0 0.0
2017-Nov-14 22:00N 35°22' E 139°54'1 1.6
2017-Nov-14 21:19N 35°22' E 139°53'1 2.7
2017-Nov-14 21:00N 35°22' E 139°52'0 0.1
2017-Nov-14 20:30N 35°22' E 139°52'1 1.2
2017-Nov-14 20:00N 35°22' E 139°51'2 5.0
2017-Nov-14 19:30N 35°24' E 139°49'3 5.2
2017-Nov-14 18:57N 35°26' E 139°50'1 1.4
2017-Nov-14 18:27N 35°26' E 139°51'3 7.8
2017-Nov-14 18:00N 35°23' E 139°51'1 2.1
2017-Nov-14 17:30N 35°22' E 139°52'1 2.4
2017-Nov-14 16:59N 35°22' E 139°53'1 1.6
2017-Nov-14 16:27N 35°22' E 139°53'0 0.0
2017-Nov-14 15:47N 35°22' E 139°53'0 0.0
2017-Nov-14 14:56N 35°22' E 139°53'0 0.0
2017-Nov-14 14:27N 35°22' E 139°53'0 0.0
2017-Nov-14 14:00N 35°22' E 139°53'0 0.0
2017-Nov-14 13:30N 35°22' E 139°53'1 1.1
2017-Nov-14 12:44N 35°22' E 139°53'1 3.6
2017-Nov-14 12:30N 35°22' E 139°54'0 0.0
2017-Nov-14 07:52N 35°22' E 139°54'0 0.0
2017-Nov-14 07:28N 35°22' E 139°54'0 0.0
2017-Nov-14 06:56N 35°22' E 139°54'0 0.1
2017-Nov-14 06:19N 35°21' E 139°54'0 0.0
2017-Nov-14 04:11N 35°21' E 139°54'0 0.0
2017-Nov-14 02:44N 35°21' E 139°54'2 9.0
2017-Nov-14 02:27N 35°23' E 139°51'3 5.6
2017-Nov-14 02:00N 35°21' E 139°49'0 0.3
2017-Nov-14 01:30N 35°21' E 139°49'2 4.4
2017-Nov-14 01:00N 35°23' E 139°50'  

Dump ship's entire track history